Latest Weather Observations for Cowra

IDN60801

Issued at 11:32 am EST Saturday 19 August 2017 (issued every 30 minutes, with the page automatically refreshed every 10 minutes)

About weather observations | Map of weather stations | Latest weather observations for NSW | Other Formats
Station Details ID: 065111 Name: COWRA AIRPORT AWS Lat: -33.84 Lon: 148.65 Height: 300.4 m
Data from the previous 72 hours. | See also: Recent months at Cowra
Date/Time
EST
Temp
°C
App
Temp
°C
Dew
Point
°C
Rel
Hum
%
Delta-T
°C
Wind Press
QNH
hPa
Press
MSL
hPa
Rain since
9am
mm
Dir  Spd
km/h
Gust
km/h
Spd
kts
Gust
kts
19/11:30am 9.0 3.7 3.2 67 2.5 WSW 20 30 11 16 1022.0 1022.4 0.0
19/11:00am 8.7 3.6 3.9 72 2.1 SW 20 32 11 17 1022.1 1022.5 0.0
19/10:30am 7.0 2.8 1.7 69 2.2 SW 13 19 7 10 1022.3 1022.7 0.0
19/10:00am 6.8 2.4 2.5 74 1.8 SW 15 20 8 11 1022.4 1022.8 0.0
19/09:30am 6.5 1.2 1.8 72 1.9 SW 19 26 10 14 1022.5 1022.9 0.0
19/09:00am 6.1 1.7 2.6 78 1.5 SSW 15 20 8 11 1022.4 1022.8 1.4
19/08:30am 5.8 1.3 2.3 78 1.5 SW 15 20 8 11 1022.1 1022.5 1.4
19/08:00am 5.4 0.9 2.1 79 1.3 SW 15 20 8 11 1021.7 1022.1 1.4
19/07:30am 4.9 0.4 2.1 82 1.1 SW 15 22 8 12 1021.0 1021.3 1.4
19/07:00am 4.5 -1.0 1.9 83 1.0 SW 20 24 11 13 1020.6 1020.9 1.4
19/06:30am 4.8 0.7 2.5 85 0.9 SSW 13 22 7 12 1020.3 1020.7 1.4
19/06:00am 4.8 0.4 2.7 86 0.9 SW 15 20 8 11 1019.8 1020.2 1.4
19/05:30am 4.7 -0.1 2.6 86 0.9 SW 17 24 9 13 1019.3 1019.7 1.4
19/05:00am 4.8 -0.9 2.7 86 0.9 SW 22 30 12 16 1019.1 1019.5 1.4
19/04:30am 4.7 -1.0 2.6 86 0.9 SW 22 30 12 16 1018.9 1019.3 1.4
19/04:00am 4.7 -0.7 2.6 86 0.9 SSW 20 30 11 16 1018.8 1019.2 1.4
19/03:30am 4.7 -1.0 2.6 86 0.9 SW 22 37 12 20 1018.0 1018.3 1.4
19/03:00am 4.4 -0.4 2.4 87 0.8 SW 17 26 9 14 1018.3 1018.6 1.4
19/02:30am 4.8 -2.1 2.7 86 0.9 SW 28 41 15 22 1018.1 1018.4 1.4
19/02:00am 4.8 -2.9 2.5 85 0.9 SW 32 43 17 23 1018.2 1018.5 1.4
19/01:30am 5.0 -3.6 2.5 84 1.0 SW 37 52 20 28 1017.9 1018.2 1.4
19/01:00am 4.9 -3.0 2.4 84 1.0 SW 33 43 18 23 1018.0 1018.3 1.4
19/12:30am 4.9 -2.0 2.4 84 1.0 SW 28 35 15 19 1018.1 1018.4 1.4
19/12:00am 5.5 -2.1 2.7 82 1.2 WSW 32 48 17 26 1018.0 1018.3 1.4
 
Date/Time
EST
Temp
°C
App
Temp
°C
Dew
Point
°C
Rel
Hum
%
Delta-T
°C
Wind Press
QNH
hPa
Press
MSL
hPa
Rain since
9am
mm
Dir  Spd
km/h
Gust
km/h
Spd
kts
Gust
kts
18/11:30pm 5.9 -1.7 2.9 81 1.3 WSW 32 43 17 23 1017.9 1018.2 1.4
18/11:00pm 6.1 -0.8 2.7 79 1.4 SW 28 37 15 20 1018.1 1018.4 1.4
18/10:30pm 6.5 -0.7 2.9 78 1.5 WSW 30 39 16 21 1018.1 1018.4 1.4
18/10:00pm 6.5 -1.1 2.8 77 1.6 WSW 32 39 17 21 1018.0 1018.3 1.4
18/09:30pm 6.7 -0.2 2.8 76 1.7 WSW 28 35 15 19 1017.8 1018.1 1.4
18/09:00pm 7.3 0.5 3.0 74 1.8 WSW 28 35 15 19 1017.9 1018.2 1.4
18/08:30pm 7.6 -0.2 2.7 71 2.1 WSW 33 48 18 26 1017.7 1018.0 1.4
18/08:00pm 8.1 -0.2 2.4 67 2.4 WSW 35 46 19 25 1017.4 1017.7 1.4
18/07:30pm 8.1 2.0 2.8 69 2.3 WSW 24 35 13 19 1017.0 1017.3 1.4
18/07:00pm 7.2 2.5 2.9 74 1.8 SW 17 26 9 14 1016.6 1017.0 1.4
18/06:30pm 8.1 2.5 3.6 73 2.0 WSW 22 41 12 22 1016.3 1016.7 1.4
18/06:00pm 7.4 1.9 4.2 80 1.4 WSW 22 32 12 17 1016.0 1016.4 1.4
18/05:30pm 7.9 1.3 4.1 77 1.7 SW 28 37 15 20 1015.3 1015.6 1.4
18/05:00pm 9.6 4.7 4.0 68 2.5 WSW 19 28 10 15 1014.9 1015.2 1.2
18/04:30pm 9.0 2.1 4.4 73 2.1 WSW 30 50 16 27 1014.7 1015.0 1.2
18/04:11pm 10.5 4.1 5.1 69 2.5 WSW 28 46 15 25 1014.3 1014.6 1.2
18/04:00pm 9.9 2.5 3.9 66 2.7 W 32 43 17 23 1014.2 1014.5 1.2
18/03:30pm 10.3 4.0 5.7 73 2.2 W 28 43 15 23 1014.0 1014.3 1.2
18/03:00pm 7.0 0.5 4.7 85 1.0 W 28 44 15 24 1014.2 1014.5 1.2
18/02:48pm 6.6 -3.4 4.1 84 1.1 WSW 46 74 25 40 1014.2 1014.5 1.0
18/02:41pm 7.2 -2.8 2.1 70 2.1 WSW 44 74 24 40 1014.4 1014.7 0.2
18/02:37pm 9.6 1.8 2.9 63 2.9 WSW 33 61 18 33 1013.9 1014.2 0.0
18/02:30pm 11.3 4.3 4.3 62 3.2 WSW 30 41 16 22 1013.8 1014.1 0.0
18/02:00pm 9.9 1.9 3.6 65 2.8 WSW 35 50 19 27 1013.9 1014.2 0.0
18/01:47pm 9.6 0.6 2.5 61 3.1 WSW 39 57 21 31 1013.7 1014.0 0.0
18/01:30pm 10.2 2.0 2.8 60 3.2 WSW 35 48 19 26 1013.5 1013.8 0.0
18/01:02pm 11.2 4.3 4.7 64 3.0 WSW 30 50 16 27 1013.6 1013.9 0.0
18/01:00pm 10.8 4.3 4.9 67 2.7 WSW 28 37 15 20 1013.6 1013.9 0.0
18/12:30pm 9.3 2.1 5.9 79 1.6 W 33 56 18 30 1014.0 1014.3 0.0
18/12:15pm 11.3 4.0 4.3 62 3.2 W 32 56 17 30 1014.1 1014.4 0.0
18/12:06pm 11.0 3.1 4.5 64 3.0 W 35 48 19 26 1014.2 1014.5 0.0
18/12:00pm 10.1 1.6 3.2 62 3.0 WSW 37 50 20 27 1014.2 1014.5 0.0
18/11:30am 10.2 2.6 3.9 65 2.8 WSW 33 50 18 27 1014.6 1014.9 0.0
18/11:17am 9.5 1.4 3.0 64 2.8 WSW 35 56 19 30 1014.6 1014.9 0.0
18/11:00am 9.9 1.4 3.4 64 2.9 WSW 37 48 20 26 1014.7 1015.0 0.0
18/10:30am 9.6 1.2 3.8 67 2.6 WSW 37 50 20 27 1014.8 1015.1 0.0
18/10:00am 9.1 1.8 4.3 72 2.2 WSW 32 46 17 25 1014.7 1015.0 0.0
18/09:49am 8.9 2.2 3.9 71 2.2 W 28 52 15 28 1014.5 1014.8 0.0
18/09:30am 8.7 1.6 5.3 79 1.6 W 32 43 17 23 1014.6 1014.9 0.0
18/09:03am 8.1 1.4 3.8 74 1.9 W 28 48 15 26 1014.4 1014.7 0.0
18/09:00am 8.3 2.5 4.5 77 1.7 W 24 39 13 21 1014.4 1014.7 0.2
18/08:30am 8.0 2.2 4.6 79 1.5 W 24 37 13 20 1014.0 1014.3 0.2
18/08:00am 7.5 0.0 3.7 77 1.7 W 32 46 17 25 1013.8 1014.1 0.0
18/07:57am 7.9 1.2 3.8 75 1.8 W 28 46 15 25 1013.7 1014.0 0.0
18/07:30am 7.9 -0.1 3.6 74 1.9 WSW 35 46 19 25 1013.5 1013.8 0.0
18/07:00am 7.9 0.2 3.2 72 2.0 W 33 43 18 23 1013.0 1013.4 0.0
18/06:30am 7.7 1.8 3.9 77 1.7 W 24 37 13 20 1012.6 1012.9 0.0
18/06:00am 8.0 1.0 4.2 77 1.7 W 30 41 16 22 1012.2 1012.5 0.0
18/05:30am 8.0 2.9 4.2 77 1.7 W 20 30 11 16 1012.1 1012.4 0.0
18/05:00am 7.7 2.6 4.1 78 1.6 W 20 30 11 16 1011.8 1012.1 0.0
18/04:30am 7.5 2.5 3.7 77 1.7 WNW 19 24 10 13 1011.4 1011.7 0.0
18/04:00am 7.5 2.3 3.6 76 1.7 W 20 33 11 18 1011.4 1011.7 0.0
18/03:30am 7.9 3.4 4.3 78 1.6 W 17 28 9 15 1011.2 1011.5 0.0
18/03:00am 7.2 2.3 4.9 85 1.0 WSW 20 30 11 16 1011.3 1011.6 0.0
18/02:41am 7.9 0.2 5.2 83 1.2 WSW 35 54 19 29 1011.9 1012.2 0.0
18/02:30am 8.2 -0.3 5.1 81 1.4 WSW 39 52 21 28 1011.8 1012.1 0.0
18/02:05am 9.6 3.1 4.8 72 2.2 WSW 28 57 15 31 1011.3 1011.6 0.0
18/02:00am 9.2 4.5 5.2 76 1.8 W 19 39 10 21 1011.4 1011.7 0.0
18/01:30am 8.7 4.8 5.3 79 1.6 WSW 15 20 8 11 1011.1 1011.4 0.0
18/01:00am 9.2 3.9 4.8 74 2.0 WSW 22 28 12 15 1011.5 1011.8 0.0
18/12:30am 9.7 3.7 3.2 64 2.9 SW 24 35 13 19 1011.2 1011.5 0.0
18/12:01am 11.1 4.1 2.2 54 3.9 SW 28 54 15 29 1011.0 1011.3 0.0
18/12:00am 11.2 4.2 2.0 53 4.0 WSW 28 39 15 21 1010.9 1011.2 0.0
 
Date/Time
EST
Temp
°C
App
Temp
°C
Dew
Point
°C
Rel
Hum
%
Delta-T
°C
Wind Press
QNH
hPa
Press
MSL
hPa
Rain since
9am
mm
Dir  Spd
km/h
Gust
km/h
Spd
kts
Gust
kts
17/11:52pm 12.1 6.6 2.0 50 4.4 W 20 37 11 20 1010.7 1011.0 0.0
17/11:30pm 8.2 4.4 1.8 64 2.7 NNW 11 15 6 8 1010.3 1010.6 0.0
17/11:00pm 8.5 3.5 1.6 62 2.9 N 17 20 9 11 1009.8 1010.1 0.0
17/10:30pm 8.8 3.8 1.2 59 3.2 NNW 17 20 9 11 1010.0 1010.2 0.0
17/10:00pm 9.6 4.8 0.2 52 3.9 NNW 15 20 8 11 1010.3 1010.6 0.0
17/09:30pm 13.5 6.5 -0.5 38 5.9 WNW 26 35 14 19 1010.4 1010.7 0.0
17/09:00pm 13.9 6.5 -0.9 36 6.2 WNW 28 39 15 21 1010.5 1010.8 0.0
17/08:30pm 14.0 7.7 -0.8 36 6.2 WNW 22 33 12 18 1010.2 1010.4 0.0
17/08:00pm 13.7 7.8 -0.7 37 6.0 WNW 20 30 11 16 1010.1 1010.3 0.0
17/07:30pm 13.6 7.9 -0.4 38 5.9 WNW 19 26 10 14 1009.7 1010.0 0.0
17/07:00pm 13.3 8.2 0.7 42 5.4 WNW 17 20 9 11 1009.6 1009.9 0.0
17/06:30pm 13.0 8.4 1.7 46 4.9 WNW 15 20 8 11 1009.1 1009.4 0.0
17/06:00pm 13.6 8.8 2.8 48 4.9 WNW 17 20 9 11 1008.7 1009.0 0.0
17/05:30pm 14.6 9.5 2.8 45 5.4 WNW 19 28 10 15 1008.5 1008.8 0.0
17/05:00pm 15.7 10.0 2.8 42 5.9 WNW 22 32 12 17 1008.3 1008.6 0.0
17/04:30pm 16.4 10.4 3.5 42 6.0 WNW 24 39 13 21 1008.2 1008.5 0.0
17/04:00pm 16.8 11.0 4.5 44 5.9 WNW 24 44 13 24 1008.2 1008.5 0.0
17/03:30pm 16.8 9.2 3.1 40 6.4 WNW 32 46 17 25 1008.4 1008.7 0.0
17/03:03pm 16.8 9.2 3.1 40 6.4 WNW 32 52 17 28 1008.5 1008.8 0.0
17/03:00pm 17.0 9.7 4.3 43 6.1 WNW 32 46 17 25 1008.5 1008.8 0.0
17/02:30pm 16.5 8.7 2.9 40 6.3 NW 33 54 18 29 1008.6 1008.9 0.0
17/02:28pm 16.6 8.8 3.0 40 6.3 NW 33 54 18 29 1008.4 1008.7 0.0
17/02:00pm 16.6 10.2 5.3 47 5.5 NW 28 43 15 23 1008.8 1009.1 0.0
17/01:30pm 16.3 9.4 4.7 46 5.6 WNW 30 41 16 22 1009.0 1009.3 0.0
17/01:00pm 16.1 10.6 6.0 51 5.0 WNW 24 33 13 18 1009.6 1009.9 0.0
17/12:30pm 14.6 8.6 5.1 53 4.5 WNW 26 35 14 19 1010.0 1010.2 0.0
17/12:00pm 16.5 11.4 5.8 49 5.3 WNW 22 30 12 16 1010.6 1010.9 0.0
17/11:30am 14.9 8.9 5.4 53 4.6 WNW 26 39 14 21 1010.9 1011.2 0.0
17/11:00am 15.0 10.2 5.5 53 4.6 NW 20 32 11 17 1011.1 1011.4 0.0
17/10:30am 14.0 9.8 7.3 64 3.3 NNW 19 24 10 13 1011.4 1011.7 0.0
17/10:00am 12.2 7.6 6.3 67 2.8 NNW 20 26 11 14 1011.6 1011.9 0.0
17/09:30am 10.6 6.2 6.7 77 1.9 NNW 19 22 10 12 1011.8 1012.1 0.0
17/09:00am 8.8 5.9 6.4 85 1.1 N 11 15 6 8 1011.7 1012.0 0.4
17/08:30am 6.2 3.3 4.8 91 0.6 N 9 11 5 6 1011.8 1012.1 0.4
17/08:00am 4.7 2.2 4.0 95 0.3 NNE 6 7 3 4 1011.6 1011.9 0.4
17/07:30am 3.6 1.1 3.5 99 0.0 NNE 6 7 3 4 1011.5 1011.8 0.4
17/07:00am 3.2 0.6 3.1 99 0.0 NE 6 7 3 4 1011.2 1011.5 0.4
17/06:30am 2.6 -0.3 2.5 99 0.0 NNE 7 9 4 5 1011.1 1011.4 0.4
17/06:00am 2.0 -1.4 1.7 98 0.1 NE 9 9 5 5 1011.0 1011.3 0.4
17/05:30am 2.8 1.2 2.5 98 0.1 CALM 0 0 0 0 1010.9 1011.2 0.4
17/05:00am 3.2 1.7 2.9 98 0.1 CALM 0 0 0 0 1010.8 1011.1 0.4
17/04:30am 3.4 2.0 3.3 99 0.0 CALM 0 0 0 0 1010.7 1011.0 0.4
17/04:00am 3.4 2.0 3.3 99 0.0 CALM 0 0 0 0 1010.6 1010.9 0.4
17/03:30am 2.5 0.8 1.9 96 0.2 CALM 0 0 0 0 1010.6 1010.9 0.4
17/03:00am 3.5 2.0 3.2 98 0.1 CALM 0 0 0 0 1010.8 1011.1 0.4
17/02:30am 3.6 2.1 3.0 96 0.2 CALM 0 0 0 0 1011.0 1011.3 0.4
17/02:00am 4.1 2.8 4.0 99 0.0 CALM 0 0 0 0 1011.2 1011.5 0.4
17/01:30am 3.4 1.8 2.5 94 0.4 CALM 0 0 0 0 1011.3 1011.6 0.4
17/01:00am 4.4 3.0 3.8 96 0.3 CALM 0 0 0 0 1011.4 1011.7 0.2
17/12:30am 4.2 2.7 3.2 93 0.4 CALM 0 0 0 0 1011.5 1011.8 0.2
17/12:00am 5.1 3.8 4.1 93 0.4 CALM 0 0 0 0 1011.7 1012.0 0.2
 
Date/Time
EST
Temp
°C
App
Temp
°C
Dew
Point
°C
Rel
Hum
%
Delta-T
°C
Wind Press
QNH
hPa
Press
MSL
hPa
Rain since
9am
mm
Dir  Spd
km/h
Gust
km/h
Spd
kts
Gust
kts
16/11:30pm 4.7 3.1 2.7 87 0.8 CALM 0 0 0 0 1011.7 1012.0 0.2
16/11:00pm 6.8 5.6 4.5 85 1.0 CALM 0 0 0 0 1011.8 1012.1 0.2
16/10:30pm 7.5 6.3 4.5 81 1.3 CALM 0 0 0 0 1011.8 1012.1 0.2
16/10:00pm 8.0 5.7 4.9 81 1.4 N 6 9 3 5 1011.9 1012.2 0.2
16/09:30pm 7.9 5.4 4.7 80 1.4 N 7 9 4 5 1011.6 1011.9 0.2
16/09:00pm 8.9 6.7 5.3 78 1.7 N 6 6 3 3 1011.6 1011.9 0.2
16/08:30pm 8.9 6.7 5.5 79 1.6 NNE 6 7 3 4 1011.4 1011.7 0.2
16/08:00pm 8.9 6.2 5.6 80 1.5 N 9 11 5 6 1011.2 1011.5 0.2
16/07:30pm 9.4 6.6 5.2 75 1.9 N 9 11 5 6 1010.8 1011.1 0.2
16/07:00pm 10.4 7.6 5.2 70 2.4 NNW 9 11 5 6 1010.4 1010.7 0.2
16/06:30pm 12.1 9.5 5.9 66 3.0 NW 9 13 5 7 1010.2 1010.4 0.2
16/06:00pm 12.2 10.0 6.3 67 2.8 WNW 7 9 4 5 1009.8 1010.1 0.2
16/05:30pm 13.0 10.1 6.6 65 3.1 W 11 13 6 7 1009.4 1009.7 0.2
16/05:00pm 13.8 10.0 5.9 59 3.8 WNW 15 22 8 12 1008.9 1009.2 0.2
16/04:30pm 14.2 10.0 5.8 57 4.1 WNW 17 26 9 14 1008.4 1008.7 0.2
16/04:00pm 14.3 10.6 6.2 58 4.0 W 15 20 8 11 1007.9 1008.2 0.2
16/03:30pm 15.2 10.7 7.0 58 4.1 W 20 28 11 15 1007.7 1008.0 0.2
16/03:00pm 15.0 9.9 6.0 55 4.4 WNW 22 28 12 15 1007.4 1007.7 0.2
16/02:30pm 15.6 9.4 6.1 53 4.7 W 28 35 15 19 1007.2 1007.4 0.2
16/02:00pm 16.0 10.9 7.7 58 4.2 WNW 24 35 13 19 1006.9 1007.1 0.2
16/01:30pm 15.8 10.0 7.8 59 4.1 WNW 28 39 15 21 1006.9 1007.1 0.2
16/01:00pm 15.7 10.0 8.4 62 3.8 W 28 35 15 19 1006.9 1007.1 0.2
16/12:33pm 14.3 7.7 7.6 64 3.4 W 32 50 17 27 1007.2 1007.4 0.2
16/12:30pm 14.0 7.0 6.8 62 3.5 W 33 50 18 27 1007.2 1007.4 0.2
16/12:28pm 13.9 7.0 6.3 60 3.7 W 32 50 17 27 1007.1 1007.3 0.2
16/12:00pm 13.0 7.9 7.7 70 2.6 W 24 35 13 19 1007.3 1007.5 0.2

Other Formats:

Comma delimited format used in spreadsheet applications
http://www.bom.gov.au/fwo/IDN60801/IDN60801.95721.axf

JavaScript Object Notation format (JSON) in row-major order
http://www.bom.gov.au/fwo/IDN60801/IDN60801.95721.json